Time;durP1;ratioP1;P1;durP2;ratioP2;P2;SDS_P1;SDS_P2;PMS_P1;PMS_P2;Temp;Humidity;BMP_temperature;BMP_pressure;BME280_temperature;BME280_humidity;BME280_pressure;Samples;Min_cycle;Max_cycle;Signal;HPM_P1;HPM_P2
2023/03/21 00:01:56;;;;;;;13.40;9.98;;;;;;;;;;4995148;28;20427;-69
2023/03/21 00:04:23;;;;;;;15.38;10.27;;;;;;;;;;5012291;28;20041;-69
2023/03/21 00:06:49;;;;;;;14.68;9.95;;;;;;;;;;5012485;28;20400;-69
2023/03/21 00:09:16;;;;;;;19.98;10.73;;;;;;;;;;5011898;28;20495;-69
2023/03/21 00:11:41;;;;;;;16.63;9.93;;;;;;;;;;5004611;28;20017;-70
2023/03/21 00:14:07;;;;;;;16.60;10.30;;;;;;;;;;5010609;28;20583;-69
2023/03/21 00:16:34;;;;;;;15.73;10.23;;;;;;;;;;5012340;28;20060;-70
2023/03/21 00:19:05;;;;;;;14.23;9.82;;;;;;;;;;5010973;28;20046;-70
2023/03/21 00:21:32;;;;;;;14.68;9.43;;;;;;;;;;5007435;28;20041;-70
2023/03/21 00:23:59;;;;;;;13.50;9.90;;;;;;;;;;5012098;28;20037;-68
2023/03/21 00:26:25;;;;;;;14.02;10.48;;;;;;;;;;5011944;28;20030;-69
2023/03/21 00:28:51;;;;;;;17.63;10.80;;;;;;;;;;4993692;28;20021;-69
2023/03/21 00:31:19;;;;;;;17.85;11.15;;;;;;;;;;5011775;28;20502;-69
2023/03/21 00:33:45;;;;;;;17.08;12.13;;;;;;;;;;5011718;28;20038;-69
2023/03/21 00:36:11;;;;;;;17.52;11.88;;;;;;;;;;5011853;28;20038;-69
2023/03/21 00:38:37;;;;;;;17.23;11.73;;;;;;;;;;4993600;28;20036;-69
2023/03/21 00:41:05;;;;;;;16.95;11.55;;;;;;;;;;5011719;28;20415;-69
2023/03/21 00:43:31;;;;;;;16.42;11.55;;;;;;;;;;4993947;28;20096;-70
2023/03/21 00:45:58;;;;;;;15.20;10.90;;;;;;;;;;5012154;28;20480;-70
2023/03/21 00:48:25;;;;;;;15.65;10.88;;;;;;;;;;5016177;28;20036;-69
2023/03/21 00:50:53;;;;;;;13.20;10.00;;;;;;;;;;4994015;28;20034;-70
2023/03/21 00:53:20;;;;;;;16.83;9.50;;;;;;;;;;5011577;28;20021;-70
2023/03/21 00:55:47;;;;;;;11.85;8.75;;;;;;;;;;5011502;28;20033;-69
2023/03/21 00:58:14;;;;;;;11.30;8.18;;;;;;;;;;4993267;28;20029;-68
2023/03/21 01:00:40;;;;;;;14.95;9.73;;;;;;;;;;5010328;28;20038;-69
2023/03/21 01:03:08;;;;;;;14.57;10.13;;;;;;;;;;5017119;28;20039;-69
2023/03/21 01:08:22;;;;;;;17.45;10.18;;;;;;;;;;5012625;28;20403;-70
2023/03/21 01:10:50;;;;;;;16.23;10.85;;;;;;;;;;4992872;28;20025;-70
2023/03/21 01:13:20;;;;;;;18.88;12.57;;;;;;;;;;4993537;28;20044;-70
2023/03/21 01:15:48;;;;;;;18.25;11.15;;;;;;;;;;4993605;28;20033;-69
2023/03/21 01:18:16;;;;;;;21.52;11.32;;;;;;;;;;4982851;28;20025;-70
2023/03/21 01:20:43;;;;;;;19.42;11.55;;;;;;;;;;5006894;28;20038;-70
2023/03/21 01:23:10;;;;;;;17.15;10.57;;;;;;;;;;5010443;28;20042;-70
2023/03/21 01:25:36;;;;;;;18.08;10.73;;;;;;;;;;5011357;28;20094;-69
2023/03/21 01:28:02;;;;;;;16.42;10.63;;;;;;;;;;5010963;28;20021;-70
2023/03/21 01:30:28;;;;;;;17.40;9.70;;;;;;;;;;5010531;28;20044;-70
2023/03/21 01:32:54;;;;;;;19.42;9.88;;;;;;;;;;4992294;28;20112;-69
2023/03/21 01:35:20;;;;;;;19.92;11.48;;;;;;;;;;5007892;28;20088;-69
2023/03/21 01:37:47;;;;;;;13.00;9.75;;;;;;;;;;4993832;28;20057;-69
2023/03/21 01:40:21;;;;;;;12.95;9.48;;;;;;;;;;5009887;28;20387;-69
2023/03/21 01:42:48;;;;;;;14.50;9.10;;;;;;;;;;4993913;28;20674;-69
2023/03/21 01:45:51;;;;;;;14.68;9.65;;;;;;;;;;4993966;28;20369;-69
2023/03/21 01:48:19;;;;;;;16.83;9.48;;;;;;;;;;5005934;28;20041;-69
2023/03/21 01:50:50;;;;;;;14.77;9.10;;;;;;;;;;4992875;28;20108;-70
2023/03/21 01:53:29;;;;;;;12.95;8.63;;;;;;;;;;4993896;28;20162;-70
2023/03/21 01:56:02;;;;;;;12.57;8.13;;;;;;;;;;5010462;28;20034;-70
2023/03/21 01:58:54;;;;;;;15.38;8.43;;;;;;;;;;5009918;28;20034;-70
2023/03/21 02:01:47;;;;;;;11.68;8.30;;;;;;;;;;5011290;28;20038;-70
2023/03/21 02:04:20;;;;;;;15.40;8.40;;;;;;;;;;4993550;28;20041;-70
2023/03/21 02:07:34;;;;;;;12.48;7.95;;;;;;;;;;5009101;28;20045;-70
2023/03/21 02:10:08;;;;;;;13.15;8.50;;;;;;;;;;5016974;28;20022;-70
2023/03/21 02:12:37;;;;;;;15.75;8.15;;;;;;;;;;5009260;28;20034;-69
2023/03/21 02:15:04;;;;;;;26.08;10.75;;;;;;;;;;4992930;28;20018;-69
2023/03/21 02:18:10;;;;;;;18.35;12.57;;;;;;;;;;5009608;28;20480;-69
2023/03/21 02:20:49;;;;;;;16.17;11.27;;;;;;;;;;4994131;28;20104;-69
2023/03/21 02:23:52;;;;;;;26.50;13.40;;;;;;;;;;4992867;28;20038;-69
2023/03/21 02:26:26;;;;;;;19.40;13.50;;;;;;;;;;4998282;28;20049;-70
2023/03/21 02:29:13;;;;;;;22.92;15.57;;;;;;;;;;5001611;28;20136;-70
2023/03/21 02:31:57;;;;;;;22.38;15.82;;;;;;;;;;4996651;28;20125;-70
2023/03/21 02:34:54;;;;;;;25.08;16.98;;;;;;;;;;5013347;28;20045;-70
2023/03/21 02:37:52;;;;;;;20.60;16.10;;;;;;;;;;4993394;28;20496;-70
2023/03/21 02:40:39;;;;;;;22.15;16.20;;;;;;;;;;4981625;28;20076;-70
2023/03/21 02:43:30;;;;;;;26.55;17.58;;;;;;;;;;5013361;28;20034;-70
2023/03/21 02:46:02;;;;;;;26.88;17.50;;;;;;;;;;5013157;28;20077;-70
2023/03/21 02:48:36;;;;;;;33.50;17.65;;;;;;;;;;4996580;28;20448;-70
2023/03/21 02:51:04;;;;;;;24.77;15.68;;;;;;;;;;4989485;28;20072;-70
2023/03/21 02:53:38;;;;;;;24.48;16.25;;;;;;;;;;4995937;28;20030;-70
2023/03/21 02:56:09;;;;;;;24.50;17.33;;;;;;;;;;5029162;28;20408;-70
2023/03/21 02:58:40;;;;;;;24.70;16.37;;;;;;;;;;4995623;28;20045;-69
2023/03/21 03:01:08;;;;;;;26.08;15.88;;;;;;;;;;5012260;28;20061;-70
2023/03/21 03:03:40;;;;;;;22.73;15.48;;;;;;;;;;4996164;28;20434;-70
2023/03/21 03:06:16;;;;;;;21.50;15.00;;;;;;;;;;4997819;28;20037;-70
2023/03/21 03:08:56;;;;;;;22.65;14.65;;;;;;;;;;4996981;28;20108;-70
2023/03/21 03:11:32;;;;;;;21.75;15.07;;;;;;;;;;4996429;28;20342;-71
2023/03/21 03:14:32;;;;;;;21.48;15.57;;;;;;;;;;4996056;28;20034;-70
2023/03/21 03:17:13;;;;;;;22.95;15.63;;;;;;;;;;4995531;28;20084;-70
2023/03/21 03:20:09;;;;;;;20.90;15.07;;;;;;;;;;5013132;28;20462;-70
2023/03/21 03:23:05;;;;;;;29.67;16.77;;;;;;;;;;4995548;28;20470;-69
2023/03/21 03:25:47;;;;;;;22.33;15.68;;;;;;;;;;5009784;28;20042;-70
2023/03/21 03:28:17;;;;;;;;;;;;;;;;;;5005938;28;20036;-70
2023/03/21 03:30:45;;;;;;;22.75;16.88;;;;;;;;;;4994563;28;19915;-70
2023/03/21 03:33:15;;;;;;;25.55;15.80;;;;;;;;;;5009383;28;20474;-70
2023/03/21 03:35:44;;;;;;;22.73;15.88;;;;;;;;;;4994083;28;20500;-70
2023/03/21 03:38:11;;;;;;;22.23;15.55;;;;;;;;;;4996966;28;20156;-70
2023/03/21 03:40:45;;;;;;;24.00;15.32;;;;;;;;;;4994656;28;20447;-69
2023/03/21 03:43:52;;;;;;;20.40;15.43;;;;;;;;;;5011578;28;20042;-69
2023/03/21 03:46:46;;;;;;;21.43;15.03;;;;;;;;;;5003560;28;20041;-69
2023/03/21 03:49:37;;;;;;;24.98;15.25;;;;;;;;;;4976517;28;20451;-69
2023/03/21 03:52:14;;;;;;;20.95;14.55;;;;;;;;;;4998853;28;20041;-70
2023/03/21 03:54:48;;;;;;;23.33;14.60;;;;;;;;;;4995125;28;20040;-70
2023/03/21 03:57:15;;;;;;;20.00;14.30;;;;;;;;;;5011038;28;20033;-69
2023/03/21 03:59:42;;;;;;;22.27;15.55;;;;;;;;;;4978741;28;20392;-70
2023/03/21 04:02:31;;;;;;;23.15;13.77;;;;;;;;;;5009183;28;20042;-69
2023/03/21 04:05:00;;;;;;;19.88;13.77;;;;;;;;;;5013253;28;20038;-71
2023/03/21 04:07:26;;;;;;;22.25;13.60;;;;;;;;;;4997842;28;20036;-70
2023/03/21 04:09:56;;;;;;;20.17;13.93;;;;;;;;;;4994551;28;20062;-69
2023/03/21 04:12:23;;;;;;;21.27;13.98;;;;;;;;;;4994549;28;20034;-69
2023/03/21 04:15:12;;;;;;;27.27;14.73;;;;;;;;;;5004026;28;20042;-69
2023/03/21 04:17:44;;;;;;;21.05;15.02;;;;;;;;;;4994391;28;20108;-69
2023/03/21 04:20:11;;;;;;;22.65;14.52;;;;;;;;;;5010338;28;20096;-69
2023/03/21 04:22:37;;;;;;;22.52;14.50;;;;;;;;;;4994180;28;20491;-69
2023/03/21 04:25:04;;;;;;;26.77;15.52;;;;;;;;;;5010730;28;20041;-70
2023/03/21 04:27:32;;;;;;;28.80;17.63;;;;;;;;;;4994409;28;20026;-70
2023/03/21 04:30:20;;;;;;;19.90;13.95;;;;;;;;;;5000449;28;20173;-70
2023/03/21 04:32:55;;;;;;;23.97;14.53;;;;;;;;;;4994162;28;20033;-70
2023/03/21 04:35:23;;;;;;;19.88;13.98;;;;;;;;;;5010253;28;20282;-70
2023/03/21 04:37:50;;;;;;;22.35;15.35;;;;;;;;;;4993891;28;20052;-70
2023/03/21 04:40:17;;;;;;;21.45;14.23;;;;;;;;;;4993831;28;20044;-70
2023/03/21 04:42:44;;;;;;;24.38;14.30;;;;;;;;;;4993660;28;20026;-71
2023/03/21 04:45:11;;;;;;;19.77;13.88;;;;;;;;;;4993935;28;20044;-69
2023/03/21 04:47:38;;;;;;;25.85;15.63;;;;;;;;;;4993339;28;20022;-70
2023/03/21 04:50:04;;;;;;;27.35;15.88;;;;;;;;;;5013697;28;20123;-69
2023/03/21 04:52:29;;;;;;;28.40;16.65;;;;;;;;;;4999435;28;20125;-71
2023/03/21 04:54:55;;;;;;;26.30;16.15;;;;;;;;;;4993789;28;20577;-69
2023/03/21 04:57:22;;;;;;;21.05;13.82;;;;;;;;;;4993177;28;20025;-70
2023/03/21 04:59:48;;;;;;;29.60;16.38;;;;;;;;;;5009522;28;20072;-70
2023/03/21 05:02:14;;;;;;;29.40;16.35;;;;;;;;;;4993296;28;20418;-70
2023/03/21 05:04:40;;;;;;;28.65;16.55;;;;;;;;;;4993594;28;20120;-70
2023/03/21 05:07:07;;;;;;;27.88;15.77;;;;;;;;;;5010509;28;20072;-70
2023/03/21 05:09:33;;;;;;;28.35;16.50;;;;;;;;;;4993321;28;20403;-69
2023/03/21 05:11:59;;;;;;;23.05;14.73;;;;;;;;;;5010837;28;20025;-71
2023/03/21 05:14:28;;;;;;;24.17;15.02;;;;;;;;;;4993353;28;20042;-69
2023/03/21 05:16:56;;;;;;;23.83;14.82;;;;;;;;;;4992157;28;20022;-69
2023/03/21 05:19:33;;;;;;;25.65;15.80;;;;;;;;;;4994703;28;20353;-69
2023/03/21 05:22:06;;;;;;;31.42;15.80;;;;;;;;;;5008799;28;20507;-69
2023/03/21 05:24:32;;;;;;;23.85;15.27;;;;;;;;;;4993025;28;20074;-70
2023/03/21 05:27:02;;;;;;;25.23;15.90;;;;;;;;;;5009872;28;20527;-70
2023/03/21 05:29:32;;;;;;;22.75;14.48;;;;;;;;;;4992513;28;20536;-70
2023/03/21 05:32:02;;;;;;;24.40;15.90;;;;;;;;;;4993262;28;20029;-69
2023/03/21 05:34:28;;;;;;;21.95;15.10;;;;;;;;;;5009417;28;20045;-70
2023/03/21 05:36:54;;;;;;;24.27;15.93;;;;;;;;;;4992289;28;20116;-70
2023/03/21 05:39:22;;;;;;;28.50;16.25;;;;;;;;;;5008218;28;20100;-70
2023/03/21 05:42:01;;;;;;;27.10;16.20;;;;;;;;;;5009329;28;20032;-70
2023/03/21 05:44:28;;;;;;;33.30;16.90;;;;;;;;;;5008784;28;20403;-70
2023/03/21 05:46:54;;;;;;;38.08;22.30;;;;;;;;;;4992809;28;20116;-69
2023/03/21 05:49:25;;;;;;;40.08;21.08;;;;;;;;;;4992119;28;20034;-70
2023/03/21 05:51:55;;;;;;;38.35;20.75;;;;;;;;;;5010320;28;20026;-69
2023/03/21 05:54:21;;;;;;;24.40;15.23;;;;;;;;;;4978460;28;20030;-69
2023/03/21 05:56:48;;;;;;;24.92;17.02;;;;;;;;;;4992824;28;20092;-70
2023/03/21 05:59:24;;;;;;;34.95;16.85;;;;;;;;;;4992042;28;20022;-70
2023/03/21 06:01:52;;;;;;;34.42;17.55;;;;;;;;;;4976675;28;20034;-69
2023/03/21 06:04:19;;;;;;;28.30;13.52;;;;;;;;;;4994479;28;20341;-73
2023/03/21 06:06:45;;;;;;;34.80;18.60;;;;;;;;;;4996494;28;20069;-76
2023/03/21 06:09:12;;;;;;;40.67;18.63;;;;;;;;;;4995341;28;20047;-76
2023/03/21 06:11:47;;;;;;;30.90;18.50;;;;;;;;;;4995886;28;20172;-75
2023/03/21 06:14:13;;;;;;;33.17;18.75;;;;;;;;;;5013534;28;20049;-76
2023/03/21 06:16:41;;;;;;;41.13;20.23;;;;;;;;;;4995204;28;20115;-75
2023/03/21 06:19:07;;;;;;;40.30;19.40;;;;;;;;;;5010006;28;20026;-76
2023/03/21 06:21:54;;;;;;;29.63;16.83;;;;;;;;;;4995939;28;20041;-74
2023/03/21 06:24:22;;;;;;;30.90;16.63;;;;;;;;;;5009725;28;20030;-73
2023/03/21 06:26:49;;;;;;;26.20;16.67;;;;;;;;;;5009367;28;20354;-73
2023/03/21 06:29:15;;;;;;;37.92;16.90;;;;;;;;;;5011593;28;20504;-77
2023/03/21 06:31:46;;;;;;;28.38;16.40;;;;;;;;;;4980431;28;20029;-76
2023/03/21 06:34:12;;;;;;;29.23;16.17;;;;;;;;;;4995329;28;20037;-76
2023/03/21 06:36:38;;;;;;;28.38;16.13;;;;;;;;;;4996217;28;20506;-76
2023/03/21 06:39:06;;;;;;;26.25;16.65;;;;;;;;;;4998936;28;20041;-75
2023/03/21 06:41:32;;;;;;;29.23;16.80;;;;;;;;;;5010276;28;20044;-74
2023/03/21 06:44:02;;;;;;;29.55;16.95;;;;;;;;;;5002202;28;20057;-75
2023/03/21 06:46:33;;;;;;;29.35;15.95;;;;;;;;;;4999647;28;20031;-73
2023/03/21 06:48:59;;;;;;;30.98;16.15;;;;;;;;;;4996156;28;20121;-73
2023/03/21 06:51:28;;;;;;;25.05;15.52;;;;;;;;;;4996216;28;20018;-73
2023/03/21 06:54:05;;;;;;;31.10;16.90;;;;;;;;;;4995472;28;20081;-74
2023/03/21 06:56:40;;;;;;;26.48;16.05;;;;;;;;;;4999651;28;20033;-72
2023/03/21 06:59:08;;;;;;;27.02;16.30;;;;;;;;;;5011516;28;20034;-73
2023/03/21 07:02:11;;;;;;;25.25;15.55;;;;;;;;;;4990835;28;20034;-74
2023/03/21 07:04:46;;;;;;;32.75;16.70;;;;;;;;;;4981371;28;20558;-76
2023/03/21 07:07:17;;;;;;;26.40;16.23;;;;;;;;;;4996638;28;20160;-76
2023/03/21 07:09:43;;;;;;;35.10;17.00;;;;;;;;;;4995263;28;20551;-77
2023/03/21 07:12:09;;;;;;;39.42;19.10;;;;;;;;;;4979009;28;20030;-76
2023/03/21 07:14:56;;;;;;;32.53;18.02;;;;;;;;;;5009373;28;20028;-76
2023/03/21 07:17:22;;;;;;;29.75;17.02;;;;;;;;;;5016579;28;20026;-74
2023/03/21 07:19:47;;;;;;;28.15;17.40;;;;;;;;;;5001081;28;20028;-76
2023/03/21 07:22:16;;;;;;;33.55;17.70;;;;;;;;;;4991731;28;20105;-76
2023/03/21 07:24:43;;;;;;;27.60;16.70;;;;;;;;;;5004560;28;20045;-75
2023/03/21 07:27:08;;;;;;;26.83;16.08;;;;;;;;;;5021496;28;20025;-75
2023/03/21 07:29:35;;;;;;;36.00;18.13;;;;;;;;;;5019280;28;20067;-76
2023/03/21 07:32:01;;;;;;;44.28;17.08;;;;;;;;;;5034314;28;20086;-76
2023/03/21 07:34:31;;;;;;;24.77;15.00;;;;;;;;;;5032561;28;20038;-74
2023/03/21 07:36:59;;;;;;;33.60;16.63;;;;;;;;;;5006731;28;20038;-77
2023/03/21 07:39:27;;;;;;;30.02;15.35;;;;;;;;;;4997657;28;20135;-76
2023/03/21 07:41:54;;;;;;;24.23;13.75;;;;;;;;;;5005375;28;20091;-75
2023/03/21 07:44:29;;;;;;;35.97;13.65;;;;;;;;;;4991034;28;20041;-75
2023/03/21 07:47:01;;;;;;;19.48;12.75;;;;;;;;;;4990619;28;20179;-74
2023/03/21 07:49:27;;;;;;;22.45;14.65;;;;;;;;;;5012478;28;20025;-74
2023/03/21 07:51:52;;;;;;;18.52;13.05;;;;;;;;;;5012732;28;20085;-75
2023/03/21 07:54:21;;;;;;;23.05;13.75;;;;;;;;;;5010668;28;20078;-76
2023/03/21 07:56:47;;;;;;;24.30;13.20;;;;;;;;;;5014699;28;20033;-75
2023/03/21 07:59:13;;;;;;;20.55;12.38;;;;;;;;;;4990707;28;20292;-76
2023/03/21 08:01:38;;;;;;;27.50;12.50;;;;;;;;;;4989988;28;20036;-74
2023/03/21 08:04:04;;;;;;;19.08;12.05;;;;;;;;;;5012087;28;20034;-77
2023/03/21 08:06:31;;;;;;;18.80;11.63;;;;;;;;;;4993292;28;20487;-74
2023/03/21 08:09:00;;;;;;;18.02;11.13;;;;;;;;;;5007004;28;20041;-76
2023/03/21 08:11:30;;;;;;;25.40;11.65;;;;;;;;;;5007167;28;20160;-74
2023/03/21 08:13:56;;;;;;;17.85;11.93;;;;;;;;;;5011412;28;20080;-76
2023/03/21 08:16:22;;;;;;;19.05;10.60;;;;;;;;;;4994208;28;20353;-77
2023/03/21 08:18:48;;;;;;;27.25;11.90;;;;;;;;;;4993687;28;20488;-77
2023/03/21 08:21:14;;;;;;;19.55;12.05;;;;;;;;;;4993645;28;20041;-77
2023/03/21 08:23:40;;;;;;;21.92;12.68;;;;;;;;;;5010084;28;20034;-76
2023/03/21 08:26:06;;;;;;;17.45;11.35;;;;;;;;;;5015899;28;20073;-77
2023/03/21 08:28:32;;;;;;;23.08;12.00;;;;;;;;;;5006429;28;20041;-75
2023/03/21 08:30:58;;;;;;;16.02;10.15;;;;;;;;;;5011117;28;20037;-74
2023/03/21 08:33:24;;;;;;;15.50;10.70;;;;;;;;;;5010999;28;20037;-75
2023/03/21 08:35:50;;;;;;;16.73;10.43;;;;;;;;;;4992487;28;20029;-73
2023/03/21 08:38:15;;;;;;;12.43;8.70;;;;;;;;;;5008803;28;20030;-72
2023/03/21 08:40:41;;;;;;;16.40;9.90;;;;;;;;;;5006460;28;20105;-73
2023/03/21 08:43:07;;;;;;;16.88;10.13;;;;;;;;;;5010234;28;20045;-74
2023/03/21 08:45:33;;;;;;;19.83;10.90;;;;;;;;;;4995459;28;20025;-75
2023/03/21 08:47:58;;;;;;;14.27;9.75;;;;;;;;;;5012616;28;20111;-76
2023/03/21 08:50:28;;;;;;;13.90;8.63;;;;;;;;;;5001619;28;20064;-74
2023/03/21 08:52:54;;;;;;;11.43;8.95;;;;;;;;;;4998967;28;20033;-75
2023/03/21 08:55:20;;;;;;;13.32;8.73;;;;;;;;;;5015277;28;20033;-76
2023/03/21 08:57:45;;;;;;;12.52;8.82;;;;;;;;;;5010430;28;20042;-76
2023/03/21 09:00:16;;;;;;;14.93;9.38;;;;;;;;;;5009932;28;20116;-74
2023/03/21 09:02:47;;;;;;;11.48;8.25;;;;;;;;;;5014946;28;20372;-77
2023/03/21 09:05:15;;;;;;;11.82;9.18;;;;;;;;;;4997498;28;20054;-78
2023/03/21 09:07:41;;;;;;;20.42;9.93;;;;;;;;;;5014122;28;20112;-74
2023/03/21 09:10:10;;;;;;;12.75;8.52;;;;;;;;;;5008107;28;20026;-76
2023/03/21 09:12:36;;;;;;;16.05;9.27;;;;;;;;;;4992075;28;20026;-75
2023/03/21 09:15:03;;;;;;;13.18;9.52;;;;;;;;;;5009258;28;20040;-75
2023/03/21 09:17:30;;;;;;;16.60;9.63;;;;;;;;;;4993635;28;20081;-75
2023/03/21 09:19:59;;;;;;;11.50;8.35;;;;;;;;;;5008880;28;20036;-76
2023/03/21 09:22:26;;;;;;;12.90;8.23;;;;;;;;;;5006756;28;20033;-76
2023/03/21 09:24:52;;;;;;;11.45;7.75;;;;;;;;;;4991812;28;20047;-75
2023/03/21 09:27:21;;;;;;;11.60;7.43;;;;;;;;;;4991598;28;20025;-74
2023/03/21 09:29:50;;;;;;;13.38;8.45;;;;;;;;;;5006674;28;20037;-75
2023/03/21 09:32:17;;;;;;;11.48;7.50;;;;;;;;;;4991324;28;20094;-76
2023/03/21 09:34:44;;;;;;;9.32;7.50;;;;;;;;;;5006974;28;20046;-76
2023/03/21 09:37:12;;;;;;;12.65;8.38;;;;;;;;;;5010684;28;20955;-77
2023/03/21 09:39:44;;;;;;;10.35;7.25;;;;;;;;;;5013556;28;20042;-77
2023/03/21 09:42:24;;;;;;;11.70;7.22;;;;;;;;;;5014181;28;20072;-76
2023/03/21 09:45:12;;;;;;;11.20;7.60;;;;;;;;;;5014242;28;20037;-77
2023/03/21 09:47:51;;;;;;;13.55;8.27;;;;;;;;;;5008990;28;20459;-76
2023/03/21 09:50:32;;;;;;;8.40;6.57;;;;;;;;;;5012450;28;20037;-77
2023/03/21 09:53:16;;;;;;;12.77;7.18;;;;;;;;;;5014797;28;20381;-77
2023/03/21 09:55:43;;;;;;;9.57;7.55;;;;;;;;;;5015928;28;20026;-75
2023/03/21 09:58:40;;;;;;;10.52;7.10;;;;;;;;;;4998555;28;20041;-77
2023/03/21 10:01:27;;;;;;;11.13;7.32;;;;;;;;;;5013010;28;20029;-76
2023/03/21 10:03:55;;;;;;;15.90;7.70;;;;;;;;;;5025079;28;20042;-76
2023/03/21 10:06:27;;;;;;;10.60;7.55;;;;;;;;;;5009779;28;20021;-75
2023/03/21 10:09:10;;;;;;;9.80;7.27;;;;;;;;;;5012916;28;20049;-75
2023/03/21 10:11:56;;;;;;;11.10;7.05;;;;;;;;;;5013844;28;20045;-77
2023/03/21 10:14:33;;;;;;;11.52;7.50;;;;;;;;;;5010213;28;20041;-74
2023/03/21 10:17:14;;;;;;;12.70;7.32;;;;;;;;;;5011179;28;20069;-74
2023/03/21 10:19:45;;;;;;;19.20;8.07;;;;;;;;;;5009852;28;20057;-75
2023/03/21 10:22:11;;;;;;;16.10;10.55;;;;;;;;;;5012930;28;20037;-73
2023/03/21 10:24:37;;;;;;;15.50;9.45;;;;;;;;;;4993337;28;20040;-75
2023/03/21 10:27:03;;;;;;;11.40;7.95;;;;;;;;;;5008251;28;20072;-73
2023/03/21 10:29:42;;;;;;;12.63;9.60;;;;;;;;;;5014021;28;20137;-75
2023/03/21 10:32:12;;;;;;;12.70;8.50;;;;;;;;;;5009889;28;20045;-75
2023/03/21 10:34:54;;;;;;;11.73;8.00;;;;;;;;;;4994326;28;20037;-75
2023/03/21 10:37:21;;;;;;;15.60;9.07;;;;;;;;;;5012880;28;20053;-72
2023/03/21 10:39:50;;;;;;;18.55;12.77;;;;;;;;;;5013668;28;20087;-75
2023/03/21 10:42:28;;;;;;;12.25;7.68;;;;;;;;;;5012168;28;20030;-73
2023/03/21 10:44:56;;;;;;;12.35;8.57;;;;;;;;;;5009252;28;20411;-73
2023/03/21 10:47:36;;;;;;;18.55;8.75;;;;;;;;;;5013759;28;20022;-73
2023/03/21 10:50:06;;;;;;;16.90;8.95;;;;;;;;;;5010247;28;20087;-71
2023/03/21 10:52:32;;;;;;;12.18;8.70;;;;;;;;;;5013354;28;20026;-70
2023/03/21 10:55:27;;;;;;;12.20;7.30;;;;;;;;;;5010892;28;20035;-71
2023/03/21 10:58:07;;;;;;;10.98;6.53;;;;;;;;;;4981073;28;20112;-72
2023/03/21 11:00:42;;;;;;;10.48;6.43;;;;;;;;;;4996280;28;20030;-73
2023/03/21 11:03:31;;;;;;;9.10;6.65;;;;;;;;;;5013836;28;20048;-75
2023/03/21 11:06:25;;;;;;;13.75;7.68;;;;;;;;;;5011578;28;20034;-76
2023/03/21 11:08:56;;;;;;;9.35;6.25;;;;;;;;;;5009880;28;20091;-74
2023/03/21 11:11:28;;;;;;;12.82;8.30;;;;;;;;;;5005181;28;20034;-74
2023/03/21 11:14:00;;;;;;;12.05;6.72;;;;;;;;;;5012288;28;20029;-74
2023/03/21 11:16:34;;;;;;;9.65;6.90;;;;;;;;;;5013298;28;20029;-73
2023/03/21 11:19:10;;;;;;;9.70;6.57;;;;;;;;;;5010726;28;20461;-73
2023/03/21 11:21:37;;;;;;;11.68;6.63;;;;;;;;;;5012586;28;20464;-74
2023/03/21 11:24:05;;;;;;;9.18;6.72;;;;;;;;;;5010792;28;20499;-74
2023/03/21 11:26:35;;;;;;;13.98;7.68;;;;;;;;;;4993828;28;20033;-71
2023/03/21 11:29:32;;;;;;;10.95;6.85;;;;;;;;;;5011242;28;20032;-77
2023/03/21 11:32:18;;;;;;;12.70;7.20;;;;;;;;;;4991644;28;20144;-72
2023/03/21 11:34:52;;;;;;;11.18;8.07;;;;;;;;;;5013086;28;20068;-73
2023/03/21 11:37:30;;;;;;;14.32;8.55;;;;;;;;;;5011665;28;20034;-74
2023/03/21 11:40:06;;;;;;;29.42;8.88;;;;;;;;;;5024551;28;20488;-74
2023/03/21 11:42:43;;;;;;;16.85;8.07;;;;;;;;;;5011079;28;20026;-73
2023/03/21 11:45:16;;;;;;;15.63;8.30;;;;;;;;;;4995333;28;20092;-73
2023/03/21 11:47:42;;;;;;;13.43;7.60;;;;;;;;;;5006330;28;20045;-73
2023/03/21 11:50:40;;;;;;;10.02;7.28;;;;;;;;;;5007768;28;20033;-76
2023/03/21 11:53:18;;;;;;;14.02;8.15;;;;;;;;;;4991001;28;20044;-72
2023/03/21 11:56:09;;;;;;;16.77;8.00;;;;;;;;;;5008025;28;20128;-75
2023/03/21 11:58:55;;;;;;;11.95;7.95;;;;;;;;;;5007873;28;20025;-75
2023/03/21 12:01:21;;;;;;;14.23;8.35;;;;;;;;;;5007937;28;20021;-73
2023/03/21 12:03:57;;;;;;;18.92;9.05;;;;;;;;;;5015115;28;20056;-74
2023/03/21 12:06:33;;;;;;;13.57;7.38;;;;;;;;;;5009857;28;20033;-74
2023/03/21 12:09:19;;;;;;;13.95;7.85;;;;;;;;;;5010824;28;20037;-73
2023/03/21 12:11:57;;;;;;;12.38;8.05;;;;;;;;;;5011675;28;20042;-74
2023/03/21 12:14:22;;;;;;;13.00;8.30;;;;;;;;;;5011355;28;20037;-73
2023/03/21 12:17:17;;;;;;;11.88;7.88;;;;;;;;;;5011767;28;20391;-73
2023/03/21 12:19:58;;;;;;;20.10;10.48;;;;;;;;;;5009817;28;20507;-74
2023/03/21 12:22:42;;;;;;;15.18;10.43;;;;;;;;;;5014299;28;20077;-74
2023/03/21 12:25:42;;;;;;;22.55;13.05;;;;;;;;;;4998933;28;20037;-73
2023/03/21 12:28:22;;;;;;;19.45;12.13;;;;;;;;;;4997181;28;20075;-75
2023/03/21 12:31:07;;;;;;;23.35;11.35;;;;;;;;;;5010601;28;20042;-75
2023/03/21 12:33:48;;;;;;;24.65;12.18;;;;;;;;;;4998234;28;20449;-72
2023/03/21 12:36:55;;;;;;;17.52;10.25;;;;;;;;;;5011208;28;20037;-73
2023/03/21 12:39:27;;;;;;;18.75;10.52;;;;;;;;;;4940384;28;20106;-72
2023/03/21 12:42:12;;;;;;;14.25;10.05;;;;;;;;;;5006812;28;20385;-73
2023/03/21 12:44:43;;;;;;;15.00;10.00;;;;;;;;;;4987775;28;20033;-72
2023/03/21 12:47:31;;;;;;;12.30;8.43;;;;;;;;;;5011755;28;20476;-74
2023/03/21 12:50:05;;;;;;;18.40;10.40;;;;;;;;;;5011161;28;20045;-72
2023/03/21 12:52:34;;;;;;;;;;;;;;;;;;5011487;28;20034;-71
2023/03/21 12:55:30;;;;;;;18.45;11.38;;;;;;;;;;5011810;28;20426;-73
2023/03/21 12:58:17;;;;;;;18.60;10.52;;;;;;;;;;5010707;28;20026;-72
2023/03/21 13:00:50;;;;;;;13.85;9.90;;;;;;;;;;5010308;28;20038;-72
2023/03/21 13:03:29;;;;;;;;;;;;;;;;;;5011122;28;20026;-72
2023/03/21 13:06:02;;;;;;;19.40;12.80;;;;;;;;;;5009406;28;19913;-72
2023/03/21 13:08:50;;;;;;;15.60;11.00;;;;;;;;;;4985015;28;20366;-77
2023/03/21 13:11:23;;;;;;;15.23;10.38;;;;;;;;;;5010441;28;20416;-75
2023/03/21 13:13:59;;;;;;;15.35;8.85;;;;;;;;;;4993557;28;20049;-74
2023/03/21 13:16:43;;;;;;;11.63;7.15;;;;;;;;;;5011664;28;20029;-74
2023/03/21 13:19:22;;;;;;;12.35;7.97;;;;;;;;;;5010980;28;20034;-73
2023/03/21 13:22:20;;;;;;;20.30;8.93;;;;;;;;;;5011372;28;20037;-74
2023/03/21 13:24:56;;;;;;;16.17;8.52;;;;;;;;;;5011024;28;20050;-75
2023/03/21 13:27:36;;;;;;;16.85;8.27;;;;;;;;;;5011110;28;20479;-74
2023/03/21 13:30:07;;;;;;;15.57;6.40;;;;;;;;;;5010813;28;20395;-74
2023/03/21 13:32:44;;;;;;;8.80;5.60;;;;;;;;;;5011430;28;20531;-74
2023/03/21 13:35:14;;;;;;;12.07;6.30;;;;;;;;;;4993673;28;20038;-74
2023/03/21 13:38:02;;;;;;;9.68;5.43;;;;;;;;;;5011144;28;20402;-73
2023/03/21 13:40:44;;;;;;;10.65;6.03;;;;;;;;;;5011233;28;20045;-73
2023/03/21 13:43:34;;;;;;;13.98;7.82;;;;;;;;;;4977463;28;20096;-74
2023/03/21 13:46:06;;;;;;;10.75;7.20;;;;;;;;;;5011304;28;20026;-73
2023/03/21 13:48:56;;;;;;;14.52;8.20;;;;;;;;;;5010888;28;20485;-74
2023/03/21 13:51:28;;;;;;;11.00;5.88;;;;;;;;;;5011265;28;20073;-72
2023/03/21 13:54:06;;;;;;;15.48;8.43;;;;;;;;;;5011339;28;20049;-72
2023/03/21 13:56:45;;;;;;;12.15;7.57;;;;;;;;;;5011274;28;20300;-72
2023/03/21 13:59:39;;;;;;;14.68;9.00;;;;;;;;;;5010453;28;20034;-73
2023/03/21 14:02:10;;;;;;;;;;;;;;;;;;4975450;28;20053;-72
2023/03/21 14:04:39;;;;;;;13.95;8.93;;;;;;;;;;5011183;28;19913;-72
2023/03/21 14:07:10;;;;;;;12.05;8.00;;;;;;;;;;5011067;28;20056;-73
2023/03/21 14:09:48;;;;;;;10.63;7.43;;;;;;;;;;5010638;28;20045;-73
2023/03/21 14:12:17;;;;;;;7.88;5.85;;;;;;;;;;5010913;28;20030;-74
2023/03/21 14:14:51;;;;;;;9.00;5.90;;;;;;;;;;5010667;28;20026;-72
2023/03/21 14:17:25;;;;;;;9.32;4.43;;;;;;;;;;5010670;28;20278;-72
2023/03/21 14:19:53;;;;;;;17.35;4.80;;;;;;;;;;4993240;28;20475;-71
2023/03/21 14:22:19;;;;;;;6.32;3.20;;;;;;;;;;5010229;28;20403;-72
2023/03/21 14:24:55;;;;;;;7.88;3.90;;;;;;;;;;5013223;28;20048;-72
2023/03/21 14:27:24;;;;;;;11.10;2.80;;;;;;;;;;5014533;28;20048;-72
2023/03/21 14:29:52;;;;;;;6.85;2.35;;;;;;;;;;5014363;28;20022;-72
2023/03/21 14:32:22;;;;;;;22.17;3.30;;;;;;;;;;5015072;28;20034;-72
2023/03/21 14:34:48;;;;;;;9.68;3.10;;;;;;;;;;5014134;28;20026;-72
2023/03/21 14:37:37;;;;;;;18.90;3.50;;;;;;;;;;5014084;28;20503;-71
2023/03/21 14:40:09;;;;;;;8.30;2.90;;;;;;;;;;5014105;28;20385;-72
2023/03/21 14:42:36;;;;;;;21.67;3.33;;;;;;;;;;5014568;28;20147;-72
2023/03/21 14:45:15;;;;;;;7.70;2.30;;;;;;;;;;5014007;28;20102;-72
2023/03/21 14:47:52;;;;;;;18.77;3.95;;;;;;;;;;5014246;28;20042;-73
2023/03/21 14:50:18;;;;;;;20.40;3.25;;;;;;;;;;5014075;28;20040;-74
2023/03/21 14:52:44;;;;;;;4.90;2.28;;;;;;;;;;5013800;28;20018;-74
2023/03/21 14:55:15;;;;;;;11.38;2.72;;;;;;;;;;4996075;28;20033;-73
2023/03/21 14:57:41;;;;;;;26.58;4.38;;;;;;;;;;5013900;28;20462;-74
2023/03/21 15:00:21;;;;;;;10.45;2.80;;;;;;;;;;4996066;28;20060;-74
2023/03/21 15:02:47;;;;;;;13.05;3.33;;;;;;;;;;5013680;28;20133;-73
2023/03/21 15:05:19;;;;;;;16.45;4.43;;;;;;;;;;5013739;28;20053;-74